createdAt,value
2023-05-22T00:01:43.795Z,18.97
2023-05-22T00:04:15.977Z,18.85
2023-05-22T00:06:45.773Z,18.85
2023-05-22T00:09:12.662Z,18.84
2023-05-22T00:11:39.762Z,18.89
2023-05-22T00:14:06.695Z,18.91
2023-05-22T00:16:36.688Z,18.85
2023-05-22T00:19:04.122Z,18.83
2023-05-22T00:21:35.108Z,18.84
2023-05-22T00:24:04.902Z,18.90
2023-05-22T00:26:32.127Z,18.80
2023-05-22T00:29:02.036Z,18.92
2023-05-22T00:31:29.020Z,18.83
2023-05-22T00:33:56.228Z,18.79
2023-05-22T00:36:23.806Z,18.83
2023-05-22T00:38:51.242Z,18.83
2023-05-22T00:41:18.096Z,18.78
2023-05-22T00:43:46.455Z,18.74
2023-05-22T00:46:14.785Z,18.75
2023-05-22T00:48:41.631Z,18.73
2023-05-22T00:51:09.214Z,18.68
2023-05-22T00:53:37.313Z,18.71
2023-05-22T00:56:07.393Z,18.67
2023-05-22T00:58:36.033Z,18.70
2023-05-22T01:01:02.951Z,18.67
2023-05-22T01:03:32.935Z,18.45
2023-05-22T01:05:59.884Z,18.41
2023-05-22T01:08:26.741Z,18.37
2023-05-22T01:10:58.772Z,18.42
2023-05-22T01:13:32.290Z,18.41
2023-05-22T01:16:11.657Z,18.41
2023-05-22T01:18:58.389Z,18.42
2023-05-22T01:21:43.554Z,18.38
2023-05-22T01:24:45.740Z,18.39
2023-05-22T01:27:26.186Z,18.32
2023-05-22T01:29:59.272Z,18.16
2023-05-22T01:32:30.224Z,18.23
2023-05-22T01:34:59.958Z,18.24
2023-05-22T01:37:27.835Z,18.22
2023-05-22T01:39:57.714Z,18.14
2023-05-22T01:42:24.890Z,18.13
2023-05-22T01:44:51.780Z,18.05
2023-05-22T01:47:18.750Z,18.04
2023-05-22T01:49:47.465Z,17.99
2023-05-22T01:52:37.649Z,17.87
2023-05-22T01:55:10.463Z,17.85
2023-05-22T01:57:47.434Z,17.77
2023-05-22T02:00:18.692Z,17.83
2023-05-22T02:02:53.856Z,17.82
2023-05-22T02:05:41.582Z,17.79
2023-05-22T02:08:13.770Z,17.80
2023-05-22T02:10:42.689Z,17.70
2023-05-22T02:13:10.673Z,17.63
2023-05-22T02:15:37.950Z,17.52
2023-05-22T02:18:10.832Z,17.48
2023-05-22T02:20:37.983Z,17.45
2023-05-22T02:23:05.552Z,17.45
2023-05-22T02:25:32.482Z,17.51
2023-05-22T02:28:00.229Z,17.39
2023-05-22T02:30:27.103Z,17.37
2023-05-22T02:32:54.942Z,17.31
2023-05-22T02:35:23.848Z,17.20
2023-05-22T02:37:52.319Z,17.13
2023-05-22T02:40:20.945Z,17.06
2023-05-22T02:42:47.844Z,16.97
2023-05-22T02:45:14.943Z,16.95
2023-05-22T02:47:42.249Z,16.95
2023-05-22T02:50:09.631Z,16.85
2023-05-22T02:52:37.380Z,16.80
2023-05-22T02:55:04.836Z,16.83
2023-05-22T02:57:33.089Z,16.87
2023-05-22T03:00:00.103Z,16.84
2023-05-22T03:02:30.058Z,16.91
2023-05-22T03:04:59.256Z,16.90
2023-05-22T03:07:29.950Z,16.90
2023-05-22T03:09:57.205Z,16.80
2023-05-22T03:12:25.009Z,16.82
2023-05-22T03:14:54.720Z,16.75
2023-05-22T03:17:23.177Z,16.75
2023-05-22T03:19:50.119Z,16.67
2023-05-22T03:22:21.457Z,16.68
2023-05-22T03:24:48.485Z,16.57
2023-05-22T03:27:17.417Z,16.44
2023-05-22T03:29:49.117Z,16.46
2023-05-22T03:32:18.392Z,16.47
2023-05-22T03:34:49.299Z,16.43
2023-05-22T03:37:16.298Z,16.42
2023-05-22T03:39:47.352Z,16.40
2023-05-22T03:42:23.000Z,16.38
2023-05-22T03:44:50.578Z,16.35
2023-05-22T03:47:21.404Z,16.33
2023-05-22T03:49:48.652Z,16.40
2023-05-22T03:52:16.909Z,16.44
2023-05-22T03:54:43.846Z,16.43
2023-05-22T03:57:10.838Z,16.42
2023-05-22T03:59:38.080Z,16.42
2023-05-22T04:02:05.745Z,16.34
2023-05-22T04:04:34.353Z,16.08
2023-05-22T04:07:05.730Z,16.11
2023-05-22T04:09:36.243Z,16.06
2023-05-22T04:12:03.962Z,15.94
2023-05-22T04:14:31.355Z,15.83
2023-05-22T04:16:59.220Z,15.93
2023-05-22T04:19:30.988Z,15.95
2023-05-22T04:22:01.055Z,16.06
2023-05-22T04:24:28.050Z,16.10
2023-05-22T04:27:00.513Z,16.12
2023-05-22T04:29:28.833Z,16.11
2023-05-22T04:31:58.473Z,16.12
2023-05-22T04:34:26.280Z,16.25
2023-05-22T04:36:56.567Z,16.27
2023-05-22T04:39:26.493Z,16.32
2023-05-22T04:41:53.275Z,16.45
2023-05-22T04:44:23.376Z,16.55
2023-05-22T04:46:52.211Z,16.57
2023-05-22T04:49:19.328Z,16.62
2023-05-22T04:51:49.048Z,16.65
2023-05-22T04:54:37.849Z,16.72
2023-05-22T04:57:25.878Z,16.76
2023-05-22T05:00:15.898Z,16.82
2023-05-22T05:02:43.538Z,16.92
2023-05-22T05:05:11.275Z,17.03
2023-05-22T05:07:39.674Z,16.99
2023-05-22T05:10:10.165Z,17.07
2023-05-22T05:12:37.512Z,17.05
2023-05-22T05:15:04.908Z,17.08
2023-05-22T05:17:32.127Z,17.16
2023-05-22T05:19:59.150Z,17.21
2023-05-22T05:22:26.321Z,17.24
2023-05-22T05:24:53.416Z,17.26
2023-05-22T05:27:20.487Z,17.36
2023-05-22T05:29:50.745Z,17.43
2023-05-22T05:32:32.442Z,17.54
2023-05-22T05:35:12.878Z,17.61
2023-05-22T05:37:44.884Z,17.65
2023-05-22T05:40:16.450Z,17.66
2023-05-22T05:42:48.706Z,17.75
2023-05-22T05:45:20.801Z,17.81
2023-05-22T05:47:47.817Z,17.83
2023-05-22T05:50:16.025Z,17.92
2023-05-22T05:52:43.353Z,17.94
2023-05-22T05:55:14.674Z,17.91
2023-05-22T05:57:41.769Z,18.02
2023-05-22T06:00:13.781Z,18.05
2023-05-22T06:02:44.028Z,18.13
2023-05-22T06:05:24.824Z,18.13
2023-05-22T06:07:59.531Z,18.20
2023-05-22T06:10:26.707Z,18.27
2023-05-22T06:13:01.159Z,18.25
2023-05-22T06:15:30.352Z,18.23
2023-05-22T06:18:00.346Z,18.31
2023-05-22T06:20:27.985Z,18.42
2023-05-22T06:22:54.864Z,18.48
2023-05-22T06:25:26.219Z,18.50
2023-05-22T06:27:57.802Z,18.64
2023-05-22T06:30:38.741Z,18.72
2023-05-22T06:33:09.358Z,18.66
2023-05-22T06:35:41.101Z,18.75
2023-05-22T06:38:08.256Z,18.83
2023-05-22T06:40:35.409Z,18.86
2023-05-22T06:43:22.481Z,18.87
2023-05-22T06:45:56.469Z,18.93
2023-05-22T06:48:25.074Z,18.91
2023-05-22T06:51:14.033Z,19.04
2023-05-22T06:53:42.045Z,19.07
2023-05-22T06:56:16.850Z,19.05
2023-05-22T06:58:54.130Z,19.11
2023-05-22T07:01:24.360Z,19.13
2023-05-22T07:04:09.327Z,19.21
2023-05-22T07:06:42.001Z,19.25
2023-05-22T07:09:11.306Z,19.36
2023-05-22T07:11:38.518Z,19.40
2023-05-22T07:14:05.497Z,19.44
2023-05-22T07:16:32.688Z,19.40
2023-05-22T07:19:03.654Z,19.39
2023-05-22T07:21:32.159Z,19.45
2023-05-22T07:23:59.083Z,19.49
2023-05-22T07:26:30.176Z,19.56
2023-05-22T07:29:04.807Z,19.63
2023-05-22T07:31:34.840Z,19.70
2023-05-22T07:34:02.778Z,19.78
2023-05-22T07:36:32.085Z,19.92
2023-05-22T07:39:01.961Z,19.94
2023-05-22T07:41:31.846Z,20.02
2023-05-22T07:43:59.113Z,20.12
2023-05-22T07:46:31.521Z,20.22
2023-05-22T07:49:07.136Z,20.31
2023-05-22T07:51:35.093Z,20.40
2023-05-22T07:54:02.079Z,20.41
2023-05-22T07:56:29.000Z,20.32
2023-05-22T07:58:58.496Z,20.24
2023-05-22T08:01:28.416Z,20.24
2023-05-22T08:03:55.719Z,20.26
2023-05-22T08:06:25.296Z,20.32
2023-05-22T08:08:55.192Z,20.43
2023-05-22T08:11:22.147Z,20.56
2023-05-22T08:13:49.117Z,20.73
2023-05-22T08:16:16.090Z,20.89
2023-05-22T08:18:45.705Z,20.93
2023-05-22T08:21:12.728Z,20.97
2023-05-22T08:23:43.800Z,20.95
2023-05-22T08:26:10.647Z,20.96
2023-05-22T08:28:37.734Z,20.99
2023-05-22T08:31:04.709Z,21.03
2023-05-22T08:33:34.658Z,21.04
2023-05-22T08:36:01.487Z,21.03
2023-05-22T08:38:28.481Z,21.04
2023-05-22T08:40:56.068Z,21.09
2023-05-22T08:43:23.768Z,21.17
2023-05-22T08:46:00.097Z,21.23
2023-05-22T08:48:32.881Z,21.33
2023-05-22T08:51:04.523Z,21.45
2023-05-22T08:53:34.694Z,21.51
2023-05-22T08:56:02.732Z,21.66
2023-05-22T08:58:30.117Z,21.73
2023-05-22T09:00:57.710Z,21.73
2023-05-22T09:03:29.059Z,21.77
2023-05-22T09:05:56.162Z,21.84
2023-05-22T09:08:26.299Z,21.91
2023-05-22T09:10:55.358Z,21.97
2023-05-22T09:13:30.481Z,21.97
2023-05-22T09:16:09.952Z,22.03
2023-05-22T09:18:41.323Z,22.01
2023-05-22T09:21:25.788Z,22.13
2023-05-22T09:24:00.297Z,22.26
2023-05-22T09:26:33.847Z,22.36
2023-05-22T09:29:01.337Z,22.29
2023-05-22T09:31:51.734Z,22.20
2023-05-22T09:34:18.671Z,22.18
2023-05-22T09:36:45.584Z,22.24
2023-05-22T09:39:17.741Z,22.23
2023-05-22T09:41:46.815Z,22.25
2023-05-22T09:44:17.526Z,22.19
2023-05-22T09:46:46.033Z,22.20
2023-05-22T09:49:16.695Z,22.19
2023-05-22T09:51:48.410Z,22.28
2023-05-22T09:54:16.527Z,22.33
2023-05-22T09:56:44.169Z,22.51
2023-05-22T09:59:12.850Z,22.65
2023-05-22T10:01:42.941Z,22.76
2023-05-22T10:04:11.249Z,22.77
2023-05-22T10:06:39.512Z,22.78
2023-05-22T10:09:09.395Z,22.87
2023-05-22T10:11:36.672Z,22.94
2023-05-22T10:14:05.268Z,22.93
2023-05-22T10:16:34.431Z,22.81
2023-05-22T10:19:01.629Z,22.79
2023-05-22T10:21:32.749Z,22.84
2023-05-22T10:24:00.384Z,22.88
2023-05-22T10:26:27.566Z,22.95
2023-05-22T10:29:11.758Z,23.01
2023-05-22T10:31:51.945Z,23.02
2023-05-22T10:34:36.097Z,23.12
2023-05-22T10:37:22.706Z,23.24
2023-05-22T10:39:55.190Z,23.41
2023-05-22T10:42:26.038Z,23.52
2023-05-22T10:44:53.517Z,23.54
2023-05-22T10:47:20.472Z,23.64
2023-05-22T10:49:47.961Z,23.64
2023-05-22T10:52:15.230Z,23.69
2023-05-22T10:54:46.412Z,23.74
2023-05-22T10:57:18.417Z,23.64
2023-05-22T10:59:48.047Z,23.76
2023-05-22T11:02:22.945Z,23.78
2023-05-22T11:04:50.043Z,23.86
2023-05-22T11:07:16.918Z,23.97
2023-05-22T11:09:48.915Z,24.03
2023-05-22T11:40:53.528Z,24.50
2023-05-22T11:43:31.764Z,24.59
2023-05-22T11:46:09.588Z,24.57
2023-05-22T11:48:36.919Z,24.73
2023-05-22T11:51:07.158Z,24.86
2023-05-22T11:53:37.907Z,24.76
2023-05-22T11:56:06.066Z,24.93
2023-05-22T11:58:36.306Z,25.07
2023-05-22T12:01:06.441Z,25.10
2023-05-22T12:03:44.209Z,25.13
2023-05-22T12:06:16.427Z,25.27
2023-05-22T12:08:45.242Z,25.33
2023-05-22T12:11:14.255Z,25.49
2023-05-22T12:13:43.700Z,25.43
2023-05-22T12:16:26.105Z,25.43
2023-05-22T12:18:59.443Z,25.47
2023-05-22T12:21:27.184Z,25.38
2023-05-22T12:23:55.305Z,25.31
2023-05-22T12:26:24.608Z,25.36
2023-05-22T12:28:55.688Z,25.45
2023-05-22T12:31:27.791Z,25.51
2023-05-22T12:33:58.277Z,25.55
2023-05-22T12:36:41.855Z,25.50
2023-05-22T12:39:16.041Z,25.40
2023-05-22T12:41:44.061Z,25.46
2023-05-22T12:44:11.237Z,25.53
2023-05-22T12:46:38.687Z,25.62
2023-05-22T12:49:05.628Z,25.72
2023-05-22T12:51:33.009Z,25.74
2023-05-22T12:54:00.331Z,25.77
2023-05-22T12:56:27.456Z,25.90
2023-05-22T12:58:54.648Z,25.85
2023-05-22T13:01:24.456Z,26.00
2023-05-22T13:03:54.455Z,26.46
2023-05-22T13:06:22.658Z,26.47
2023-05-22T13:08:49.607Z,26.52
2023-05-22T13:11:17.250Z,26.55
2023-05-22T13:13:44.209Z,26.55
2023-05-22T13:16:11.664Z,26.68
2023-05-22T13:18:40.796Z,26.82
2023-05-22T13:21:07.756Z,27.24
2023-05-22T13:23:34.685Z,27.13
2023-05-22T13:26:02.408Z,27.20
2023-05-22T13:28:32.283Z,27.28
2023-05-22T13:30:59.195Z,27.60
2023-05-22T13:33:26.304Z,27.88
2023-05-22T13:35:53.218Z,28.04
2023-05-22T13:38:22.813Z,28.31
2023-05-22T13:40:50.123Z,28.07
2023-05-22T13:43:20.476Z,28.14
2023-05-22T13:45:48.470Z,28.45
2023-05-22T13:48:15.348Z,28.63
2023-05-22T13:50:42.339Z,28.83
2023-05-22T13:53:09.455Z,28.64
2023-05-22T13:55:36.386Z,28.71
2023-05-22T13:58:04.347Z,28.87
2023-05-22T14:00:31.417Z,28.70
2023-05-22T14:02:58.419Z,29.02
2023-05-22T14:05:27.576Z,29.40
2023-05-22T14:07:56.238Z,29.27
2023-05-22T14:10:23.270Z,29.32
2023-05-22T14:12:50.460Z,29.07
2023-05-22T14:15:18.005Z,29.11
2023-05-22T14:17:46.972Z,29.43
2023-05-22T14:20:14.125Z,29.70
2023-05-22T14:22:56.016Z,29.67
2023-05-22T14:25:25.410Z,29.22
2023-05-22T14:27:52.368Z,29.08
2023-05-22T14:30:19.637Z,28.99
2023-05-22T14:32:47.292Z,28.83
2023-05-22T14:35:16.863Z,28.62
2023-05-22T14:37:46.651Z,28.78
2023-05-22T14:40:14.428Z,28.93
2023-05-22T14:42:41.584Z,29.22
2023-05-22T14:45:09.313Z,29.43
2023-05-22T14:47:36.351Z,29.69
2023-05-22T14:50:17.998Z,29.83
2023-05-22T14:52:51.286Z,30.08
2023-05-22T14:55:18.559Z,30.37
2023-05-22T14:57:46.795Z,30.84
2023-05-22T15:03:13.816Z,31.00
2023-05-22T15:05:42.188Z,30.75
2023-05-22T15:08:09.424Z,30.70
2023-05-22T15:10:59.837Z,30.42
2023-05-22T15:19:56.365Z,28.73
2023-05-22T15:22:23.205Z,27.62
2023-05-22T15:25:06.529Z,26.97
2023-05-22T15:27:35.403Z,26.55
2023-05-22T15:30:07.157Z,26.43
2023-05-22T15:32:37.085Z,26.14
2023-05-22T15:35:07.993Z,26.27
2023-05-22T15:37:36.767Z,26.50
2023-05-22T15:40:04.725Z,26.43
2023-05-22T15:42:32.477Z,26.30
2023-05-22T15:45:01.887Z,26.59
2023-05-22T15:47:29.661Z,26.60
2023-05-22T15:49:56.669Z,26.40
2023-05-22T15:52:24.854Z,26.32
2023-05-22T15:54:52.096Z,26.22
2023-05-22T15:57:20.250Z,26.01
2023-05-22T15:59:51.135Z,25.99
2023-05-22T16:02:21.745Z,26.05
2023-05-22T16:04:49.566Z,26.08
2023-05-22T16:07:20.298Z,25.94
2023-05-22T16:09:47.295Z,25.91
2023-05-22T16:12:14.704Z,25.66
2023-05-22T16:14:41.955Z,25.52
2023-05-22T16:17:12.449Z,25.53
2023-05-22T16:19:39.473Z,25.45
2023-05-22T16:22:06.532Z,25.64
2023-05-22T16:24:35.661Z,25.79
2023-05-22T16:27:02.932Z,25.84
2023-05-22T16:29:33.263Z,25.69
2023-05-22T16:32:03.975Z,25.45
2023-05-22T16:34:33.964Z,25.20
2023-05-22T16:37:01.260Z,25.14
2023-05-22T16:39:28.559Z,25.25
2023-05-22T16:41:55.535Z,25.43
2023-05-22T16:44:22.348Z,25.74
2023-05-22T16:46:50.358Z,25.72
2023-05-22T16:49:20.765Z,25.91
2023-05-22T16:51:47.664Z,25.94
2023-05-22T16:54:17.619Z,26.04
2023-05-22T16:56:44.607Z,26.23
2023-05-22T16:59:11.542Z,26.29
2023-05-22T17:01:44.489Z,26.28
2023-05-22T17:04:16.008Z,26.21
2023-05-22T17:06:43.955Z,25.83
2023-05-22T17:09:11.455Z,25.75
2023-05-22T17:11:38.392Z,25.83
2023-05-22T17:14:05.455Z,25.95
2023-05-22T17:16:33.632Z,26.22
2023-05-22T17:19:02.160Z,26.32
2023-05-22T17:21:31.009Z,26.23
2023-05-22T17:23:58.113Z,26.34
2023-05-22T17:26:25.892Z,26.41
2023-05-22T17:28:54.049Z,26.56
2023-05-22T17:31:22.280Z,26.40
2023-05-22T17:33:49.124Z,26.40
2023-05-22T17:36:16.264Z,26.42
2023-05-22T17:38:43.136Z,26.23
2023-05-22T17:41:10.087Z,26.23
2023-05-22T17:43:38.395Z,26.16
2023-05-22T17:46:08.900Z,26.33
2023-05-22T17:48:35.894Z,26.11
2023-05-22T17:51:07.156Z,25.94
2023-05-22T17:53:35.181Z,25.77
2023-05-22T17:56:03.747Z,25.61
2023-05-22T17:58:32.949Z,25.50
2023-05-22T18:01:03.199Z,25.41
2023-05-22T18:03:30.584Z,25.13
2023-05-22T18:05:57.890Z,25.13
2023-05-22T18:08:24.841Z,25.02
2023-05-22T18:10:51.920Z,24.76
2023-05-22T18:13:19.835Z,24.45
2023-05-22T18:15:46.800Z,24.19
2023-05-22T18:18:18.401Z,24.08
2023-05-22T18:20:48.105Z,23.86
2023-05-22T18:23:15.176Z,23.62
2023-05-22T18:25:45.238Z,23.41
2023-05-22T18:28:12.138Z,23.27
2023-05-22T18:30:39.358Z,23.13
2023-05-22T18:33:06.515Z,23.02
2023-05-22T18:35:33.505Z,22.92
2023-05-22T18:38:00.403Z,22.74
2023-05-22T18:40:27.286Z,22.76
2023-05-22T18:42:55.301Z,22.60
2023-05-22T18:45:25.132Z,22.66
2023-05-22T18:47:52.081Z,22.74
2023-05-22T18:50:19.373Z,22.62
2023-05-22T18:53:04.276Z,22.47
2023-05-22T18:55:31.467Z,22.37
2023-05-22T18:57:58.561Z,22.23
2023-05-22T19:00:25.637Z,22.13
2023-05-22T19:02:55.876Z,21.95
2023-05-22T19:05:23.043Z,21.96
2023-05-22T19:07:50.367Z,21.95
2023-05-22T19:10:17.625Z,21.91
2023-05-22T19:12:44.788Z,21.81
2023-05-22T19:15:12.041Z,21.81
2023-05-22T19:17:39.142Z,21.68
2023-05-22T19:20:07.626Z,21.62
2023-05-22T19:22:34.601Z,21.55
2023-05-22T19:25:03.032Z,21.49
2023-05-22T19:27:30.104Z,21.38
2023-05-22T19:29:57.361Z,21.28
2023-05-22T19:32:24.403Z,21.25
2023-05-22T19:34:51.447Z,21.14
2023-05-22T19:37:18.391Z,21.06
2023-05-22T19:39:45.458Z,21.01
2023-05-22T19:42:12.728Z,21.02
2023-05-22T19:44:39.570Z,20.91
2023-05-22T19:47:06.595Z,20.89
2023-05-22T19:49:37.209Z,20.87
2023-05-22T19:52:06.078Z,20.86
2023-05-22T19:54:33.170Z,20.85
2023-05-22T19:57:00.319Z,20.69
2023-05-22T19:59:27.666Z,20.67
2023-05-22T20:01:54.925Z,20.69
2023-05-22T20:04:22.068Z,20.73
2023-05-22T20:06:49.141Z,20.75
2023-05-22T20:09:16.554Z,20.74
2023-05-22T20:11:43.544Z,20.62
2023-05-22T20:14:12.723Z,20.62
2023-05-22T20:16:39.811Z,20.56
2023-05-22T20:19:07.102Z,20.49
2023-05-22T20:21:34.075Z,20.47
2023-05-22T20:24:04.720Z,20.44
2023-05-22T20:26:31.638Z,20.43
2023-05-22T20:28:58.558Z,20.41
2023-05-22T20:31:26.179Z,20.41
2023-05-22T20:33:53.088Z,20.42
2023-05-22T20:36:20.096Z,20.33
2023-05-22T20:38:47.091Z,20.31
2023-05-22T20:41:14.131Z,20.31
2023-05-22T20:43:43.633Z,20.27
2023-05-22T20:46:10.833Z,20.29
2023-05-22T20:48:38.834Z,20.24
2023-05-22T20:51:06.188Z,20.22
2023-05-22T20:53:33.472Z,20.22
2023-05-22T20:56:00.397Z,20.20
2023-05-22T20:58:27.633Z,20.15
2023-05-22T21:00:54.637Z,20.06
2023-05-22T21:03:23.003Z,20.04
2023-05-22T21:05:51.104Z,20.03
2023-05-22T21:08:18.034Z,19.95
2023-05-22T21:10:45.099Z,20.01
2023-05-22T21:13:11.944Z,19.93
2023-05-22T21:15:38.879Z,19.92
2023-05-22T21:18:06.256Z,19.88
2023-05-22T21:20:33.182Z,19.77
2023-05-22T21:23:00.154Z,19.72
2023-05-22T21:25:28.323Z,19.77
2023-05-22T21:27:55.363Z,19.77
2023-05-22T21:30:23.326Z,19.72
2023-05-22T21:32:50.332Z,19.64
2023-05-22T21:35:17.303Z,19.65
2023-05-22T21:37:44.159Z,19.66
2023-05-22T21:40:11.522Z,19.65
2023-05-22T21:42:46.451Z,19.64
2023-05-22T21:45:14.425Z,19.54
2023-05-22T21:47:41.608Z,19.59
2023-05-22T21:50:08.879Z,19.54
2023-05-22T21:52:36.199Z,19.49
2023-05-22T21:55:03.443Z,19.48
2023-05-22T21:57:30.404Z,19.49
2023-05-22T21:59:57.431Z,19.46
2023-05-22T22:02:24.877Z,19.48
2023-05-22T22:04:52.020Z,19.51
2023-05-22T22:07:21.757Z,19.51
2023-05-22T22:09:48.807Z,19.53
2023-05-22T22:12:15.928Z,19.48
2023-05-22T22:14:42.813Z,19.38
2023-05-22T22:17:09.755Z,19.28
2023-05-22T22:19:36.744Z,19.22
2023-05-22T22:22:04.931Z,19.19
2023-05-22T22:24:31.920Z,19.28
2023-05-22T22:26:59.019Z,19.27
2023-05-22T22:29:26.377Z,19.27
2023-05-22T22:31:53.184Z,19.30
2023-05-22T22:34:20.172Z,19.32
2023-05-22T22:36:47.644Z,19.19
2023-05-22T22:39:14.711Z,19.15
2023-05-22T22:41:43.374Z,19.23
2023-05-22T22:44:10.742Z,19.25
2023-05-22T22:46:37.800Z,19.18
2023-05-22T22:49:05.018Z,19.23
2023-05-22T22:51:31.887Z,19.12
2023-05-22T22:53:58.893Z,19.15
2023-05-22T22:56:29.604Z,19.17
2023-05-22T22:58:57.429Z,19.19
2023-05-22T23:01:24.713Z,19.16
2023-05-22T23:03:52.373Z,19.21
2023-05-22T23:06:19.626Z,19.15
2023-05-22T23:08:49.250Z,19.19
2023-05-22T23:11:16.868Z,19.10
2023-05-22T23:13:43.844Z,19.04
2023-05-22T23:16:11.340Z,19.10
2023-05-22T23:18:38.569Z,18.98
2023-05-22T23:21:06.943Z,18.96
2023-05-22T23:23:33.828Z,19.02
2023-05-22T23:26:00.931Z,18.97
2023-05-22T23:28:27.868Z,18.90
2023-05-22T23:30:55.169Z,18.91
2023-05-22T23:33:22.057Z,18.94
2023-05-22T23:35:49.000Z,18.89
2023-05-22T23:38:16.196Z,18.95
2023-05-22T23:40:43.300Z,18.91
2023-05-22T23:43:10.120Z,18.82
2023-05-22T23:45:37.297Z,18.77
2023-05-22T23:48:04.564Z,18.70
2023-05-22T23:50:31.779Z,18.66
2023-05-22T23:52:58.704Z,18.60
2023-05-22T23:55:25.551Z,18.56
2023-05-22T23:57:52.410Z,18.54
